createdAt,value
2018-12-22T00:01:19.639Z,0.90
2018-12-22T00:03:45.784Z,1.00
2018-12-22T00:06:11.934Z,0.93
2018-12-22T00:08:38.015Z,1.00
2018-12-22T00:11:04.160Z,1.17
2018-12-22T00:13:30.256Z,0.90
2018-12-22T00:15:56.359Z,0.97
2018-12-22T00:18:22.455Z,1.60
2018-12-22T00:20:48.644Z,1.17
2018-12-22T00:26:17.344Z,1.00
2018-12-22T00:28:43.422Z,0.80
2018-12-22T00:31:09.526Z,0.83
2018-12-22T00:33:35.637Z,1.10
2018-12-22T00:36:01.742Z,1.00
2018-12-22T00:38:27.820Z,0.80
2018-12-22T00:40:54.520Z,0.80
2018-12-22T00:43:20.599Z,1.10
2018-12-22T00:45:46.694Z,0.90
2018-12-22T00:48:12.870Z,1.00
2018-12-22T00:50:38.991Z,0.60
2018-12-22T00:53:05.095Z,0.70
2018-12-22T00:55:31.172Z,0.67
2018-12-22T00:57:57.271Z,0.60
2018-12-22T01:00:23.370Z,0.50
2018-12-22T01:02:49.507Z,0.70
2018-12-22T01:05:15.662Z,0.50
2018-12-22T01:07:42.009Z,0.67
2018-12-22T01:10:08.126Z,0.60
2018-12-22T01:12:34.216Z,0.70
2018-12-22T01:15:00.324Z,0.80
2018-12-22T01:17:26.423Z,0.50
2018-12-22T01:19:52.531Z,0.60
2018-12-22T01:22:18.632Z,0.60
2018-12-22T01:24:44.819Z,0.70
2018-12-22T01:27:10.991Z,0.50
2018-12-22T01:29:37.127Z,0.60
2018-12-22T01:32:03.244Z,0.60
2018-12-22T01:34:29.331Z,0.77
2018-12-22T01:36:55.427Z,0.57
2018-12-22T01:39:21.529Z,0.80
2018-12-22T01:41:47.620Z,0.53
2018-12-22T01:44:13.754Z,0.60
2018-12-22T01:46:39.929Z,0.60
2018-12-22T01:49:06.047Z,0.80
2018-12-22T01:51:32.146Z,0.73
2018-12-22T01:53:58.251Z,0.80
2018-12-22T01:56:24.360Z,0.80
2018-12-22T01:58:50.459Z,1.20
2018-12-22T02:01:16.603Z,0.90
2018-12-22T02:03:42.796Z,1.00
2018-12-22T02:06:08.939Z,0.80
2018-12-22T02:08:35.043Z,0.80
2018-12-22T02:11:01.128Z,0.83
2018-12-22T02:13:27.238Z,0.90
2018-12-22T02:15:53.343Z,0.77
2018-12-22T02:18:19.520Z,0.83
2018-12-22T02:20:45.718Z,0.93
2018-12-22T02:23:11.828Z,0.80
2018-12-22T02:25:38.005Z,0.63
2018-12-22T02:28:04.111Z,0.80
2018-12-22T02:30:30.206Z,0.77
2018-12-22T02:32:56.316Z,0.60
2018-12-22T02:35:22.475Z,0.80
2018-12-22T02:37:48.635Z,0.80
2018-12-22T02:40:14.778Z,0.63
2018-12-22T02:42:40.932Z,0.70
2018-12-22T02:45:07.020Z,0.80
2018-12-22T02:47:33.115Z,0.70
2018-12-22T02:49:59.231Z,0.60
2018-12-22T02:52:25.407Z,0.70
2018-12-22T02:54:51.495Z,0.60
2018-12-22T02:57:17.619Z,0.70
2018-12-22T02:59:43.729Z,0.70
2018-12-22T03:02:09.851Z,0.87
2018-12-22T03:04:35.932Z,0.80
2018-12-22T03:07:02.037Z,0.80
2018-12-22T03:09:28.141Z,0.70
2018-12-22T03:11:54.236Z,0.70
2018-12-22T03:14:20.374Z,0.60
2018-12-22T03:16:46.561Z,0.70
2018-12-22T03:19:12.662Z,0.70
2018-12-22T03:21:38.923Z,0.80
2018-12-22T03:24:05.020Z,1.00
2018-12-22T03:26:31.128Z,1.30
2018-12-22T03:28:57.213Z,0.90
2018-12-22T03:31:23.309Z,1.00
2018-12-22T03:33:49.533Z,0.80
2018-12-22T03:36:15.709Z,0.90
2018-12-22T03:38:41.949Z,0.80
2018-12-22T03:41:08.046Z,0.80
2018-12-22T03:43:34.262Z,0.90
2018-12-22T03:46:00.440Z,0.90
2018-12-22T03:48:26.534Z,0.87
2018-12-22T03:50:52.653Z,0.70
2018-12-22T03:53:18.788Z,0.70
2018-12-22T03:55:44.944Z,0.90
2018-12-22T03:58:11.039Z,0.63
2018-12-22T04:00:37.150Z,0.70
2018-12-22T04:03:03.315Z,0.30
2018-12-22T04:05:29.519Z,0.30
2018-12-22T04:07:55.654Z,0.40
2018-12-22T04:10:21.751Z,0.20
2018-12-22T04:12:47.844Z,0.20
2018-12-22T04:15:14.079Z,0.30
2018-12-22T04:17:40.170Z,0.30
2018-12-22T04:20:06.301Z,0.20
2018-12-22T04:22:32.474Z,0.23
2018-12-22T04:24:58.638Z,0.20
2018-12-22T04:27:24.762Z,0.17
2018-12-22T04:29:50.851Z,0.20
2018-12-22T04:32:16.936Z,0.20
2018-12-22T04:34:43.031Z,0.33
2018-12-22T04:37:09.123Z,0.40
2018-12-22T04:39:35.361Z,0.30
2018-12-22T04:42:01.496Z,0.40
2018-12-22T04:44:27.647Z,0.50
2018-12-22T04:46:53.783Z,0.40
2018-12-22T04:49:19.869Z,0.70
2018-12-22T04:51:45.976Z,0.50
2018-12-22T04:54:12.062Z,0.40
2018-12-22T04:56:38.149Z,0.60
2018-12-22T04:59:04.364Z,0.47
2018-12-22T05:01:30.596Z,0.43
2018-12-22T05:03:56.746Z,0.43
2018-12-22T05:06:22.848Z,0.50
2018-12-22T05:08:48.939Z,0.50
2018-12-22T05:11:15.037Z,0.70
2018-12-22T05:13:41.121Z,0.70
2018-12-22T05:16:07.220Z,0.80
2018-12-22T05:18:33.338Z,0.70
2018-12-22T05:20:59.499Z,0.60
2018-12-22T05:23:25.601Z,0.67
2018-12-22T05:25:51.691Z,0.77
2018-12-22T05:28:17.788Z,0.83
2018-12-22T05:30:43.879Z,0.70
2018-12-22T05:33:09.963Z,0.70
2018-12-22T05:35:36.055Z,0.60
2018-12-22T05:38:02.197Z,0.80
2018-12-22T05:40:28.306Z,0.60
2018-12-22T05:42:54.454Z,0.60
2018-12-22T05:45:20.551Z,0.83
2018-12-22T05:47:46.642Z,0.67
2018-12-22T05:50:12.794Z,0.70
2018-12-22T05:52:38.895Z,0.70
2018-12-22T05:55:04.979Z,0.90
2018-12-22T05:57:31.078Z,0.80
2018-12-22T06:00:00.707Z,0.67
2018-12-22T06:02:25.267Z,0.60
2018-12-22T06:04:51.367Z,0.70
2018-12-22T06:07:17.476Z,0.70
2018-12-22T06:09:43.711Z,0.70
2018-12-22T06:12:09.851Z,0.60
2018-12-22T06:14:35.947Z,0.70
2018-12-22T06:17:02.083Z,0.80
2018-12-22T06:19:28.176Z,1.10
2018-12-22T06:21:54.286Z,1.00
2018-12-22T06:24:20.385Z,1.20
2018-12-22T06:26:46.475Z,1.30
2018-12-22T06:29:12.603Z,1.50
2018-12-22T06:31:38.688Z,1.27
2018-12-22T06:34:04.787Z,1.10
2018-12-22T06:36:30.895Z,1.00
2018-12-22T06:38:57.000Z,1.00
2018-12-22T06:41:23.098Z,1.10
2018-12-22T06:43:49.647Z,0.83
2018-12-22T06:46:15.766Z,1.10
2018-12-22T06:48:41.963Z,0.90
2018-12-22T06:51:08.061Z,1.30
2018-12-22T06:53:34.179Z,1.43
2018-12-22T06:56:00.263Z,1.17
2018-12-22T06:58:26.350Z,1.30
2018-12-22T07:00:52.452Z,1.07
2018-12-22T07:03:18.539Z,1.10
2018-12-22T07:05:44.705Z,1.30
2018-12-22T07:08:10.943Z,1.10
2018-12-22T07:10:37.064Z,1.03
2018-12-22T07:13:03.196Z,1.53
2018-12-22T07:15:29.555Z,1.30
2018-12-22T07:17:55.651Z,0.90
2018-12-22T07:20:21.768Z,0.97
2018-12-22T07:22:47.912Z,0.90
2018-12-22T07:25:13.996Z,0.90
2018-12-22T07:27:40.165Z,1.07
2018-12-22T07:32:45.597Z,1.30
2018-12-22T07:35:11.730Z,1.30
2018-12-22T07:37:37.829Z,1.03
2018-12-22T07:40:04.207Z,1.10
2018-12-22T07:42:30.313Z,0.90
2018-12-22T07:44:56.396Z,0.87
2018-12-22T07:47:22.499Z,1.20
2018-12-22T07:49:48.596Z,0.93
2018-12-22T07:52:14.743Z,1.17
2018-12-22T07:54:40.848Z,1.00
2018-12-22T07:57:06.936Z,0.83
2018-12-22T07:59:33.043Z,1.03
2018-12-22T08:01:59.136Z,1.10
2018-12-22T08:04:25.257Z,0.90
2018-12-22T08:06:51.513Z,1.20
2018-12-22T08:09:17.620Z,1.40
2018-12-22T08:11:43.785Z,1.40
2018-12-22T08:14:09.873Z,1.07
2018-12-22T08:16:35.974Z,1.10
2018-12-22T08:19:02.072Z,1.20
2018-12-22T08:21:28.374Z,1.20
2018-12-22T08:23:54.579Z,1.20
2018-12-22T08:26:20.904Z,0.90
2018-12-22T08:28:47.078Z,1.20
2018-12-22T08:31:13.235Z,1.20
2018-12-22T08:33:39.375Z,1.00
2018-12-22T08:36:05.496Z,1.03
2018-12-22T08:38:31.579Z,0.90
2018-12-22T08:40:57.684Z,1.22
2018-12-22T08:43:23.824Z,1.57
2018-12-22T08:45:49.943Z,1.00
2018-12-22T08:48:17.280Z,1.20
2018-12-22T08:50:43.379Z,1.10
2018-12-22T08:53:09.545Z,0.93
2018-12-22T08:55:35.694Z,1.23
2018-12-22T08:58:01.918Z,1.20
2018-12-22T09:00:28.044Z,1.10
2018-12-22T09:02:54.207Z,1.30
2018-12-22T09:05:20.328Z,0.90
2018-12-22T09:07:46.688Z,0.93
2018-12-22T09:10:12.801Z,1.37
2018-12-22T09:12:39.046Z,1.23
2018-12-22T09:15:07.083Z,1.20
2018-12-22T09:17:33.318Z,1.10
2018-12-22T09:19:59.592Z,1.10
2018-12-22T09:22:25.700Z,1.30
2018-12-22T09:24:51.819Z,1.10
2018-12-22T09:27:17.923Z,1.67
2018-12-22T09:29:44.063Z,1.50
2018-12-22T09:32:10.164Z,1.50
2018-12-22T09:34:36.272Z,1.40
2018-12-22T09:37:02.479Z,1.60
2018-12-22T09:39:28.584Z,1.40
2018-12-22T09:41:54.695Z,1.80
2018-12-22T09:44:20.880Z,2.20
2018-12-22T09:46:46.961Z,1.40
2018-12-22T09:49:13.066Z,1.50
2018-12-22T09:51:39.184Z,1.27
2018-12-22T09:54:05.563Z,1.60
2018-12-22T09:56:31.663Z,1.57
2018-12-22T09:58:57.775Z,1.50
2018-12-22T10:01:23.921Z,1.03
2018-12-22T10:03:50.023Z,1.37
2018-12-22T10:06:16.143Z,2.63
2018-12-22T10:08:42.249Z,1.30
2018-12-22T10:11:08.382Z,1.20
2018-12-22T10:13:34.479Z,1.17
2018-12-22T10:16:00.692Z,1.20
2018-12-22T10:18:26.862Z,1.50
2018-12-22T10:20:53.012Z,1.20
2018-12-22T10:23:19.126Z,1.60
2018-12-22T10:25:45.272Z,1.30
2018-12-22T10:28:11.429Z,1.53
2018-12-22T10:30:37.698Z,1.40
2018-12-22T10:33:04.404Z,1.60
2018-12-22T10:35:30.547Z,1.10
2018-12-22T10:37:56.711Z,1.50
2018-12-22T10:40:22.921Z,1.30
2018-12-22T10:42:49.103Z,1.77
2018-12-22T10:45:15.226Z,1.60
2018-12-22T10:47:41.334Z,1.60
2018-12-22T10:50:08.605Z,1.30
2018-12-22T10:52:34.832Z,1.00
2018-12-22T10:55:01.058Z,1.50
2018-12-22T10:57:27.220Z,1.47
2018-12-22T10:59:53.692Z,1.70
2018-12-22T11:02:20.171Z,1.80
2018-12-22T11:04:46.371Z,2.20
2018-12-22T11:07:12.487Z,1.47
2018-12-22T11:09:38.587Z,1.50
2018-12-22T11:12:04.679Z,2.10
2018-12-22T11:14:30.771Z,1.67
2018-12-22T11:16:56.860Z,1.67
2018-12-22T11:19:23.036Z,1.30
2018-12-22T11:21:49.173Z,1.67
2018-12-22T11:24:15.295Z,1.47
2018-12-22T11:26:41.394Z,1.90
2018-12-22T11:29:07.492Z,1.40
2018-12-22T11:31:35.173Z,1.27
2018-12-22T11:34:01.511Z,1.30
2018-12-22T11:36:27.606Z,1.20
2018-12-22T11:38:53.775Z,1.13
2018-12-22T11:41:20.000Z,1.50
2018-12-22T11:43:46.144Z,1.60
2018-12-22T11:46:12.251Z,1.20
2018-12-22T11:48:39.520Z,1.63
2018-12-22T11:51:05.615Z,1.87
2018-12-22T11:53:31.726Z,1.63
2018-12-22T11:55:57.837Z,3.33
2018-12-22T11:58:24.009Z,1.73
2018-12-22T12:00:50.563Z,1.50
2018-12-22T12:03:16.793Z,1.97
2018-12-22T12:08:39.449Z,2.23
2018-12-22T12:11:05.707Z,2.00
2018-12-22T12:13:31.837Z,1.80
2018-12-22T12:15:59.704Z,1.90
2018-12-22T12:18:34.926Z,1.93
2018-12-22T12:21:01.092Z,1.63
2018-12-22T12:23:27.242Z,1.70
2018-12-22T12:25:53.402Z,1.63
2018-12-22T12:28:19.520Z,1.80
2018-12-22T12:30:45.619Z,1.53
2018-12-22T12:33:11.813Z,1.90
2018-12-22T12:35:38.192Z,1.00
2018-12-22T12:38:04.351Z,1.57
2018-12-22T12:40:30.451Z,1.20
2018-12-22T12:42:56.531Z,1.50
2018-12-22T12:45:22.639Z,1.43
2018-12-22T12:47:48.738Z,1.07
2018-12-22T12:50:19.477Z,1.37
2018-12-22T12:52:45.627Z,1.30
2018-12-22T12:55:11.837Z,1.10
2018-12-22T12:57:38.082Z,1.47
2018-12-22T13:00:14.008Z,1.30
2018-12-22T13:02:40.139Z,1.10
2018-12-22T13:05:07.975Z,1.47
2018-12-22T13:07:34.120Z,1.40
2018-12-22T13:10:00.298Z,1.67
2018-12-22T13:12:29.304Z,0.93
2018-12-22T13:14:55.435Z,1.10
2018-12-22T13:17:21.562Z,1.20
2018-12-22T13:19:47.742Z,1.90
2018-12-22T13:22:13.901Z,1.30
2018-12-22T13:24:40.002Z,1.67
2018-12-22T13:27:06.084Z,1.20
2018-12-22T13:29:32.183Z,1.10
2018-12-22T13:31:58.268Z,1.40
2018-12-22T13:34:24.371Z,1.60
2018-12-22T13:36:50.564Z,1.43
2018-12-22T13:39:16.821Z,1.70
2018-12-22T13:41:43.003Z,1.53
2018-12-22T13:44:09.195Z,2.00
2018-12-22T13:46:35.318Z,1.47
2018-12-22T13:49:01.777Z,1.70
2018-12-22T13:51:28.064Z,1.80
2018-12-22T13:53:54.181Z,1.43
2018-12-22T13:56:20.331Z,1.67
2018-12-22T13:58:46.495Z,1.33
2018-12-22T14:01:12.730Z,2.00
2018-12-22T14:03:38.845Z,1.80
2018-12-22T14:06:06.522Z,1.50
2018-12-22T14:08:32.630Z,1.97
2018-12-22T14:10:58.761Z,1.63
2018-12-22T14:13:25.006Z,1.90
2018-12-22T14:15:51.135Z,2.00
2018-12-22T14:18:23.280Z,1.60
2018-12-22T14:20:49.450Z,1.63
2018-12-22T14:23:15.559Z,1.77
2018-12-22T14:25:42.054Z,1.53
2018-12-22T14:28:08.167Z,2.03
2018-12-22T14:30:34.476Z,2.30
2018-12-22T14:33:00.597Z,2.07
2018-12-22T14:35:30.464Z,2.60
2018-12-22T14:37:56.587Z,1.90
2018-12-22T14:40:22.752Z,2.17
2018-12-22T14:42:48.866Z,2.00
2018-12-22T14:45:14.953Z,2.20
2018-12-22T14:47:41.209Z,2.33
2018-12-22T14:50:11.563Z,1.73
2018-12-22T14:52:37.730Z,1.87
2018-12-22T14:55:08.729Z,2.30
2018-12-22T14:57:37.698Z,1.80
2018-12-22T15:00:09.708Z,2.73
2018-12-22T15:02:35.890Z,1.80
2018-12-22T15:05:02.520Z,1.40
2018-12-22T15:07:28.644Z,1.27
2018-12-22T15:09:54.752Z,1.27
2018-12-22T15:12:20.873Z,1.90
2018-12-22T15:14:46.959Z,1.20
2018-12-22T15:17:13.075Z,1.70
2018-12-22T15:19:39.179Z,2.83
2018-12-22T15:22:06.581Z,2.00
2018-12-22T15:24:33.009Z,2.40
2018-12-22T15:26:59.191Z,3.37
2018-12-22T15:29:25.279Z,2.30
2018-12-22T15:31:51.379Z,2.40
2018-12-22T15:34:17.511Z,2.43
2018-12-22T15:36:43.607Z,1.83
2018-12-22T15:39:09.769Z,2.97
2018-12-22T15:41:35.919Z,3.87
2018-12-22T15:44:02.105Z,3.50
2018-12-22T15:46:28.220Z,3.50
2018-12-22T15:48:54.316Z,3.87
2018-12-22T15:51:20.419Z,3.20
2018-12-22T15:53:46.505Z,2.40
2018-12-22T15:56:12.602Z,2.17
2018-12-22T15:58:38.700Z,2.20
2018-12-22T16:01:04.816Z,2.50
2018-12-22T16:03:31.036Z,2.27
2018-12-22T16:05:57.159Z,2.47
2018-12-22T16:08:23.284Z,2.67
2018-12-22T16:10:49.378Z,2.30
2018-12-22T16:13:15.487Z,2.00
2018-12-22T16:15:41.594Z,1.80
2018-12-22T16:18:07.679Z,2.40
2018-12-22T16:20:33.857Z,2.43
2018-12-22T16:23:00.035Z,1.93
2018-12-22T16:25:26.501Z,2.27
2018-12-22T16:27:56.583Z,2.23
2018-12-22T16:30:31.734Z,2.20
2018-12-22T16:33:01.737Z,2.77
2018-12-22T16:35:25.951Z,2.30
2018-12-22T16:37:52.040Z,2.50
2018-12-22T16:40:18.147Z,2.20
2018-12-22T16:42:44.279Z,1.97
2018-12-22T16:45:13.181Z,2.00
2018-12-22T16:47:39.338Z,1.90
2018-12-22T16:50:12.724Z,1.60
2018-12-22T16:52:39.045Z,2.23
2018-12-22T16:55:08.704Z,1.70
2018-12-22T16:57:35.386Z,1.77
2018-12-22T17:00:04.157Z,1.60
2018-12-22T17:02:30.522Z,1.47
2018-12-22T17:04:56.614Z,1.53
2018-12-22T17:07:22.704Z,1.93
2018-12-22T17:09:48.815Z,1.90
2018-12-22T17:12:14.923Z,1.83
2018-12-22T17:14:41.116Z,1.70
2018-12-22T17:17:07.207Z,2.20
2018-12-22T17:19:33.299Z,2.07
2018-12-22T17:21:59.947Z,1.80
2018-12-22T17:24:26.178Z,2.00
2018-12-22T17:26:52.330Z,2.10
2018-12-22T17:29:18.410Z,2.30
2018-12-22T17:31:44.582Z,2.13
2018-12-22T17:34:10.992Z,2.20
2018-12-22T17:36:37.087Z,1.90
2018-12-22T17:39:04.746Z,2.23
2018-12-22T17:41:30.832Z,2.27
2018-12-22T17:43:56.925Z,2.60
2018-12-22T17:46:23.039Z,2.03
2018-12-22T17:48:49.232Z,2.20
2018-12-22T17:51:15.331Z,2.13
2018-12-22T17:53:41.431Z,2.30
2018-12-22T17:56:07.639Z,2.37
2018-12-22T17:58:33.764Z,2.70
2018-12-22T18:00:59.868Z,2.77
2018-12-22T18:03:27.589Z,3.03
2018-12-22T18:05:54.020Z,2.40
2018-12-22T18:08:20.183Z,3.03
2018-12-22T18:10:46.276Z,3.20
2018-12-22T18:13:12.431Z,3.30
2018-12-22T18:15:38.583Z,2.63
2018-12-22T18:18:04.670Z,3.47
2018-12-22T18:20:30.789Z,3.37
2018-12-22T18:22:56.887Z,3.07
2018-12-22T18:25:22.975Z,3.60
2018-12-22T18:27:50.751Z,2.83
2018-12-22T18:30:17.280Z,3.67
2018-12-22T18:32:44.420Z,3.23
2018-12-22T18:35:10.550Z,3.40
2018-12-22T18:37:37.529Z,3.47
2018-12-22T18:40:11.035Z,3.03
2018-12-22T18:42:37.164Z,3.43
2018-12-22T18:45:06.722Z,3.37
2018-12-22T18:47:32.831Z,3.43
2018-12-22T18:49:58.920Z,3.20
2018-12-22T18:52:25.062Z,4.23
2018-12-22T18:54:51.245Z,3.30
2018-12-22T18:57:17.392Z,3.20
2018-12-22T18:59:43.479Z,3.33
2018-12-22T19:02:09.570Z,2.87
2018-12-22T19:04:35.683Z,3.03
2018-12-22T19:07:01.775Z,4.37
2018-12-22T19:09:27.915Z,2.70
2018-12-22T19:11:54.091Z,3.60
2018-12-22T19:14:20.293Z,2.60
2018-12-22T19:16:46.404Z,2.47
2018-12-22T19:19:12.486Z,2.63
2018-12-22T19:21:38.584Z,2.40
2018-12-22T19:24:04.662Z,2.50
2018-12-22T19:26:30.771Z,2.57
2018-12-22T19:28:56.855Z,2.87
2018-12-22T19:31:22.935Z,2.57
2018-12-22T19:33:53.514Z,2.10
2018-12-22T19:36:17.179Z,2.63
2018-12-22T19:38:43.310Z,1.93
2018-12-22T19:41:09.395Z,2.00
2018-12-22T19:43:35.515Z,2.10
2018-12-22T19:46:01.672Z,1.43
2018-12-22T19:48:27.788Z,2.10
2018-12-22T19:50:53.936Z,2.10
2018-12-22T19:53:20.040Z,1.73
2018-12-22T19:55:46.258Z,2.00
2018-12-22T19:58:12.368Z,2.20
2018-12-22T20:00:38.547Z,2.17
2018-12-22T20:03:04.647Z,2.00
2018-12-22T20:05:30.748Z,2.93
2018-12-22T20:07:56.935Z,2.40
2018-12-22T20:10:23.067Z,2.33
2018-12-22T20:12:49.200Z,2.37
2018-12-22T20:15:15.307Z,2.47
2018-12-22T20:17:41.391Z,2.30
2018-12-22T20:20:08.047Z,2.20
2018-12-22T20:22:34.152Z,2.17
2018-12-22T20:25:00.309Z,2.70
2018-12-22T20:27:26.552Z,1.97
2018-12-22T20:29:53.468Z,2.30
2018-12-22T20:32:19.660Z,2.07
2018-12-22T20:34:45.753Z,2.10
2018-12-22T20:37:11.859Z,1.97
2018-12-22T20:39:38.306Z,1.90
2018-12-22T20:42:04.517Z,1.80
2018-12-22T20:44:30.849Z,1.70
2018-12-22T20:46:56.984Z,2.03
2018-12-22T20:49:23.588Z,1.93
2018-12-22T20:51:49.709Z,1.90
2018-12-22T20:54:16.231Z,1.63
2018-12-22T20:56:42.341Z,1.60
2018-12-22T20:59:08.519Z,1.67
2018-12-22T21:01:34.955Z,1.70
2018-12-22T21:04:01.053Z,2.60
2018-12-22T21:06:30.256Z,2.50
2018-12-22T21:08:56.683Z,2.07
2018-12-22T21:11:22.771Z,1.63
2018-12-22T21:13:49.187Z,2.07
2018-12-22T21:16:15.297Z,1.70
2018-12-22T21:18:41.563Z,1.83
2018-12-22T21:21:07.910Z,1.90
2018-12-22T21:23:34.363Z,2.10
2018-12-22T21:26:00.463Z,1.50
2018-12-22T21:28:26.747Z,2.10
2018-12-22T21:30:52.888Z,1.80
2018-12-22T21:33:19.006Z,2.07
2018-12-22T21:35:52.936Z,1.63
2018-12-22T21:38:13.267Z,2.30
2018-12-22T21:40:39.375Z,3.57
2018-12-22T21:43:05.478Z,2.03
2018-12-22T21:45:31.611Z,1.43
2018-12-22T21:47:57.709Z,2.40
2018-12-22T21:50:23.852Z,1.87
2018-12-22T21:52:49.958Z,1.90
2018-12-22T21:55:16.067Z,1.70
2018-12-22T21:57:42.162Z,1.63
2018-12-22T22:00:08.252Z,1.70
2018-12-22T22:02:34.409Z,2.00
2018-12-22T22:05:00.558Z,1.43
2018-12-22T22:07:26.671Z,1.60
2018-12-22T22:09:52.756Z,1.37
2018-12-22T22:12:18.861Z,1.33
2018-12-22T22:14:44.958Z,1.67
2018-12-22T22:17:11.055Z,1.40
2018-12-22T22:19:37.691Z,1.67
2018-12-22T22:22:04.029Z,2.03
2018-12-22T22:24:30.138Z,1.60
2018-12-22T22:26:56.275Z,1.57
2018-12-22T22:29:22.388Z,1.63
2018-12-22T22:31:48.486Z,1.70
2018-12-22T22:34:14.585Z,1.83
2018-12-22T22:36:40.683Z,2.30
2018-12-22T22:39:06.852Z,2.03
2018-12-22T22:41:32.994Z,2.57
2018-12-22T22:43:59.139Z,1.90
2018-12-22T22:46:25.233Z,2.40
2018-12-22T22:48:51.337Z,2.10
2018-12-22T22:51:17.419Z,2.03
2018-12-22T22:53:43.612Z,2.87
2018-12-22T22:56:09.823Z,1.80
2018-12-22T22:58:35.923Z,1.50
2018-12-22T23:01:02.103Z,1.60
2018-12-22T23:03:28.215Z,2.30
2018-12-22T23:05:55.123Z,1.90
2018-12-22T23:08:21.275Z,2.07
2018-12-22T23:10:47.395Z,2.17
2018-12-22T23:13:13.500Z,2.00
2018-12-22T23:15:39.604Z,2.53
2018-12-22T23:18:05.696Z,1.77
2018-12-22T23:20:31.803Z,2.80
2018-12-22T23:22:57.902Z,2.50
2018-12-22T23:25:24.119Z,2.13
2018-12-22T23:27:50.279Z,1.97
2018-12-22T23:30:16.434Z,2.23
2018-12-22T23:32:42.539Z,1.80
2018-12-22T23:35:08.643Z,1.73
2018-12-22T23:37:34.756Z,1.50
2018-12-22T23:40:00.847Z,1.80
2018-12-22T23:42:26.936Z,2.07
2018-12-22T23:44:53.041Z,1.93
2018-12-22T23:47:19.176Z,1.93
2018-12-22T23:49:45.424Z,2.63
2018-12-22T23:52:11.528Z,1.80
2018-12-22T23:54:37.630Z,1.93
2018-12-22T23:57:03.736Z,1.50
2018-12-22T23:59:29.835Z,1.73
